Aviation Digital Data Service (ADDS)

Output produced by METARs form (1640 UTC 16 June 2019)
found at http://www.aviationweather.gov/metar/data/
 
Forecast for: ZBYN (TAIYUAN/WUSU , CN)
Text: TAF ZBYN 161505Z 1618/1718 09004MPS 6000 NSC TX33/1707Z TN16/1621Z
Forecast period: 1800 UTC 16 June 2019 to 1800 UTC 17 June 2019
Forecast type: FROM: standard forecast or significant change
Winds: from the E (90 degrees) at 9 MPH (8 knots; 4.1 m/s)
Visibility: 4 miles (6 km)
Ceiling: unknown
Clouds: missing
Weather: no significant weather forecast for this period